createdAt,value
2022-10-22T00:01:40.369Z,77.38
2022-10-22T00:04:12.044Z,77.31
2022-10-22T00:06:45.120Z,77.21
2022-10-22T00:09:17.197Z,77.39
2022-10-22T00:11:48.965Z,77.63
2022-10-22T00:14:20.792Z,77.55
2022-10-22T00:16:56.457Z,77.75
2022-10-22T00:19:28.406Z,77.63
2022-10-22T00:22:00.178Z,77.73
2022-10-22T00:24:35.675Z,77.89
2022-10-22T00:27:10.361Z,77.86
2022-10-22T00:29:42.046Z,77.91
2022-10-22T00:32:15.436Z,78.22
2022-10-22T00:34:47.137Z,77.90
2022-10-22T00:37:18.853Z,78.07
2022-10-22T00:39:50.635Z,78.04
2022-10-22T00:42:25.006Z,78.19
2022-10-22T00:45:11.978Z,78.64
2022-10-22T00:47:51.140Z,78.58
2022-10-22T00:51:04.387Z,78.44
2022-10-22T00:53:45.888Z,78.58
2022-10-22T00:56:17.930Z,78.36
2022-10-22T00:58:55.591Z,78.93
2022-10-22T01:01:31.255Z,78.62
2022-10-22T01:04:03.009Z,78.67
2022-10-22T01:06:34.820Z,78.84
2022-10-22T01:09:12.323Z,78.84
2022-10-22T01:12:10.665Z,78.93
2022-10-22T01:15:02.492Z,78.75
2022-10-22T01:17:57.317Z,78.62
2022-10-22T01:20:57.241Z,78.91
2022-10-22T01:23:39.890Z,79.05
2022-10-22T01:26:30.101Z,79.32
2022-10-22T01:29:30.590Z,79.44
2022-10-22T01:32:08.245Z,79.42
2022-10-22T01:34:44.199Z,79.45
2022-10-22T01:37:18.718Z,79.60
2022-10-22T01:39:51.936Z,80.06
2022-10-22T01:42:26.951Z,79.46
2022-10-22T01:45:00.704Z,79.85
2022-10-22T01:47:35.378Z,79.62
2022-10-22T01:50:19.056Z,79.78
2022-10-22T01:53:09.044Z,79.93
2022-10-22T01:55:59.205Z,79.82
2022-10-22T01:59:04.127Z,79.50
2022-10-22T02:01:48.495Z,79.12
2022-10-22T02:04:35.384Z,79.08
2022-10-22T02:07:11.458Z,79.34
2022-10-22T02:09:43.872Z,79.07
2022-10-22T02:12:21.641Z,79.55
2022-10-22T02:14:55.674Z,79.23
2022-10-22T02:17:31.598Z,79.37
2022-10-22T02:20:12.927Z,79.52
2022-10-22T02:22:45.294Z,79.29
2022-10-22T02:25:17.312Z,79.70
2022-10-22T02:27:54.375Z,79.65
2022-10-22T02:30:26.458Z,79.31
2022-10-22T02:33:10.056Z,79.33
2022-10-22T02:35:46.662Z,78.93
2022-10-22T02:38:19.227Z,79.55
2022-10-22T02:40:50.896Z,79.60
2022-10-22T02:43:25.510Z,79.48
2022-10-22T02:45:57.437Z,79.48
2022-10-22T02:48:29.368Z,79.35
2022-10-22T02:51:03.976Z,79.43
2022-10-22T02:53:35.754Z,79.50
2022-10-22T02:56:07.671Z,79.30
2022-10-22T02:58:39.437Z,79.52
2022-10-22T03:01:16.096Z,79.15
2022-10-22T03:03:48.179Z,79.12
2022-10-22T03:06:20.050Z,78.88
2022-10-22T03:08:51.890Z,78.68
2022-10-22T03:11:23.682Z,79.08
2022-10-22T03:13:55.448Z,78.49
2022-10-22T03:16:30.322Z,78.83
2022-10-22T03:19:04.626Z,79.00
2022-10-22T03:21:44.590Z,78.93
2022-10-22T03:24:58.120Z,79.14
2022-10-22T03:27:30.311Z,79.22
2022-10-22T03:30:05.882Z,79.35
2022-10-22T03:32:37.625Z,78.69
2022-10-22T03:35:09.597Z,78.90
2022-10-22T03:37:41.481Z,79.17
2022-10-22T03:40:17.044Z,78.65
2022-10-22T03:42:51.823Z,79.08
2022-10-22T03:45:23.432Z,79.23
2022-10-22T03:47:55.150Z,79.17
2022-10-22T03:50:26.875Z,78.77
2022-10-22T03:52:58.708Z,78.92
2022-10-22T03:55:33.456Z,78.97
2022-10-22T03:58:06.522Z,79.16
2022-10-22T04:00:38.657Z,79.34
2022-10-22T04:03:10.479Z,79.19
2022-10-22T04:05:42.152Z,79.10
2022-10-22T04:08:16.907Z,79.30
2022-10-22T04:10:52.335Z,79.01
2022-10-22T04:13:24.504Z,79.05
2022-10-22T04:15:57.632Z,78.45
2022-10-22T04:18:29.366Z,78.49
2022-10-22T04:21:01.073Z,78.41
2022-10-22T04:23:33.045Z,78.76
2022-10-22T04:26:07.933Z,78.61
2022-10-22T04:28:39.539Z,78.35
2022-10-22T04:31:14.522Z,78.62
2022-10-22T04:33:49.987Z,78.37
2022-10-22T04:36:23.035Z,78.26
2022-10-22T04:39:07.476Z,78.28
2022-10-22T04:41:39.509Z,78.03
2022-10-22T04:44:13.791Z,78.46
2022-10-22T04:46:48.550Z,78.87
2022-10-22T04:49:20.332Z,79.56
2022-10-22T04:51:52.122Z,79.27
2022-10-22T04:54:26.620Z,79.43
2022-10-22T04:57:00.599Z,78.92
2022-10-22T04:59:32.826Z,78.54
2022-10-22T05:02:04.587Z,78.65
2022-10-22T05:04:36.280Z,78.42
2022-10-22T05:07:11.055Z,78.71
2022-10-22T05:09:45.796Z,78.80
2022-10-22T05:12:17.373Z,78.48
2022-10-22T05:14:49.018Z,79.04
2022-10-22T05:17:20.805Z,79.12
2022-10-22T05:19:55.510Z,79.23
2022-10-22T05:22:27.077Z,79.34
2022-10-22T05:24:58.807Z,79.54
2022-10-22T05:27:30.546Z,79.20
2022-10-22T05:30:02.251Z,79.44
2022-10-22T05:32:35.396Z,79.84
2022-10-22T05:35:07.347Z,79.79
2022-10-22T05:37:42.313Z,80.45
2022-10-22T05:40:26.906Z,80.34
2022-10-22T05:43:03.820Z,80.11
2022-10-22T05:45:42.944Z,80.71
2022-10-22T05:48:14.995Z,81.08
2022-10-22T05:50:50.845Z,81.14
2022-10-22T05:53:25.472Z,81.41
2022-10-22T05:56:00.728Z,81.42
2022-10-22T05:58:38.725Z,82.13
2022-10-22T06:01:24.078Z,81.93
2022-10-22T06:04:03.837Z,82.24
2022-10-22T06:06:39.579Z,81.96
2022-10-22T06:09:20.119Z,82.47
2022-10-22T06:11:53.527Z,82.64
2022-10-22T06:14:28.652Z,82.89
2022-10-22T06:17:01.830Z,83.14
2022-10-22T06:19:33.645Z,82.70
2022-10-22T06:22:05.724Z,83.20
2022-10-22T06:24:40.426Z,83.48
2022-10-22T06:27:14.573Z,83.56
2022-10-22T06:29:46.269Z,83.53
2022-10-22T06:32:18.204Z,83.76
2022-10-22T06:34:50.908Z,83.97
2022-10-22T06:37:22.578Z,84.93
2022-10-22T06:39:54.647Z,84.48
2022-10-22T06:42:30.669Z,84.27
2022-10-22T06:45:04.908Z,84.57
2022-10-22T06:47:36.536Z,84.19
2022-10-22T06:50:09.745Z,83.93
2022-10-22T06:52:42.486Z,84.14
2022-10-22T06:55:14.315Z,83.74
2022-10-22T06:57:46.012Z,83.21
2022-10-22T07:00:17.956Z,82.84
2022-10-22T07:02:56.506Z,82.57
2022-10-22T07:05:33.522Z,82.53
2022-10-22T07:08:11.171Z,82.49
2022-10-22T07:10:42.976Z,83.41
2022-10-22T07:13:21.853Z,83.64
2022-10-22T07:16:00.250Z,83.32
2022-10-22T07:18:32.565Z,83.19
2022-10-22T07:21:05.633Z,83.19
2022-10-22T07:23:38.105Z,83.46
2022-10-22T07:26:15.788Z,83.42
2022-10-22T07:28:50.135Z,83.40
2022-10-22T07:31:21.860Z,83.48
2022-10-22T07:33:54.279Z,83.80
2022-10-22T07:36:26.052Z,83.47
2022-10-22T07:38:59.259Z,83.17
2022-10-22T07:41:31.344Z,82.89
2022-10-22T07:44:03.027Z,82.97
2022-10-22T07:46:35.817Z,82.91
2022-10-22T07:49:13.546Z,83.22
2022-10-22T07:51:47.874Z,83.33
2022-10-22T07:54:19.487Z,83.55
2022-10-22T07:56:51.231Z,83.41
2022-10-22T07:59:23.286Z,83.54
2022-10-22T08:01:54.965Z,83.55
2022-10-22T08:04:26.804Z,83.19
2022-10-22T08:06:58.781Z,83.34
2022-10-22T08:09:30.621Z,83.39
2022-10-22T08:12:02.388Z,83.08
2022-10-22T08:14:35.642Z,83.20
2022-10-22T08:17:07.348Z,83.73
2022-10-22T08:19:40.295Z,83.76
2022-10-22T08:22:11.986Z,83.58
2022-10-22T08:24:43.823Z,83.28
2022-10-22T08:27:19.508Z,83.55
2022-10-22T08:29:53.686Z,83.40
2022-10-22T08:34:59.357Z,83.15
2022-10-22T08:37:31.102Z,82.99
2022-10-22T08:40:04.678Z,83.49
2022-10-22T08:42:38.769Z,84.16
2022-10-22T08:45:41.377Z,84.94
2022-10-22T08:48:34.199Z,84.72
2022-10-22T08:51:06.078Z,84.58
2022-10-22T08:53:45.584Z,84.26
2022-10-22T08:56:17.273Z,84.72
2022-10-22T08:59:16.305Z,84.53
2022-10-22T09:01:51.400Z,84.26
2022-10-22T09:04:33.831Z,84.17
2022-10-22T09:07:10.453Z,84.38
2022-10-22T09:09:49.207Z,84.08
2022-10-22T09:12:27.110Z,84.15
2022-10-22T09:14:59.428Z,84.02
2022-10-22T09:17:44.653Z,84.22
2022-10-22T09:20:40.238Z,83.99
2022-10-22T09:23:30.492Z,83.55
2022-10-22T09:26:02.839Z,83.67
2022-10-22T09:28:37.055Z,83.17
2022-10-22T09:31:13.567Z,82.98
2022-10-22T09:33:49.140Z,83.07
2022-10-22T09:36:23.912Z,83.15
2022-10-22T09:39:02.221Z,83.41
2022-10-22T09:41:34.256Z,83.04
2022-10-22T09:44:10.302Z,83.51
2022-10-22T09:46:48.148Z,83.41
2022-10-22T09:49:23.205Z,83.09
2022-10-22T09:52:03.186Z,83.22
2022-10-22T09:54:41.825Z,82.79
2022-10-22T09:57:22.500Z,82.54
2022-10-22T09:59:57.525Z,82.41
2022-10-22T10:02:44.713Z,81.66
2022-10-22T10:05:25.450Z,81.49
2022-10-22T10:07:58.413Z,81.41
2022-10-22T10:10:43.728Z,81.17
2022-10-22T10:13:43.860Z,81.10
2022-10-22T10:16:41.608Z,81.30
2022-10-22T10:19:29.015Z,80.61
2022-10-22T10:22:25.155Z,80.06
2022-10-22T10:25:29.531Z,79.02
2022-10-22T10:28:42.716Z,78.53
2022-10-22T10:31:42.309Z,78.56
2022-10-22T10:34:35.375Z,78.76
2022-10-22T10:37:18.564Z,78.39
2022-10-22T10:40:14.380Z,79.06
2022-10-22T10:42:55.908Z,79.04
2022-10-22T10:45:30.504Z,78.50
2022-10-22T10:48:27.743Z,78.50
2022-10-22T10:51:21.391Z,79.07
2022-10-22T10:54:33.105Z,79.79
2022-10-22T10:57:13.625Z,79.97
2022-10-22T11:00:03.435Z,79.08
2022-10-22T11:03:05.543Z,78.20
2022-10-22T11:05:59.458Z,77.51
2022-10-22T11:08:36.398Z,76.07
2022-10-22T11:11:30.271Z,73.53
2022-10-22T11:14:07.760Z,72.37
2022-10-22T11:16:46.749Z,71.27
2022-10-22T11:19:51.062Z,69.30
2022-10-22T11:22:26.609Z,66.65
2022-10-22T11:25:13.556Z,65.28
2022-10-22T11:28:11.573Z,64.53
2022-10-22T11:30:48.947Z,62.71
2022-10-22T11:33:26.641Z,61.00
2022-10-22T11:36:00.080Z,61.08
2022-10-22T11:38:36.545Z,62.57
2022-10-22T11:41:15.656Z,62.90
2022-10-22T11:43:56.526Z,63.12
2022-10-22T11:46:44.497Z,63.45
2022-10-22T11:49:20.693Z,63.64
2022-10-22T11:52:07.856Z,64.17
2022-10-22T11:54:44.969Z,64.17
2022-10-22T11:57:16.642Z,63.75
2022-10-22T11:59:52.978Z,64.21
2022-10-22T12:02:41.105Z,64.02
2022-10-22T12:05:22.153Z,63.90
2022-10-22T12:08:03.773Z,64.91
2022-10-22T12:10:59.418Z,64.38
2022-10-22T12:14:09.658Z,64.90
2022-10-22T12:16:55.834Z,64.93
2022-10-22T12:19:36.908Z,63.49
2022-10-22T12:22:16.904Z,62.70
2022-10-22T12:24:57.730Z,62.96
2022-10-22T12:27:41.576Z,63.45
2022-10-22T12:30:22.413Z,61.14
2022-10-22T12:32:56.952Z,60.63
2022-10-22T12:35:41.996Z,60.93
2022-10-22T12:38:21.664Z,61.08
2022-10-22T12:40:56.939Z,61.95
2022-10-22T12:43:33.597Z,62.76
2022-10-22T12:46:13.651Z,63.53
2022-10-22T12:48:46.136Z,63.73
2022-10-22T12:51:20.424Z,63.74
2022-10-22T12:53:54.792Z,64.08
2022-10-22T12:56:33.280Z,64.37
2022-10-22T12:59:18.348Z,63.72
2022-10-22T13:01:51.968Z,63.60
2022-10-22T13:04:26.963Z,63.54
2022-10-22T13:07:10.259Z,63.53
2022-10-22T13:10:01.456Z,63.91
2022-10-22T13:12:37.102Z,63.89
2022-10-22T13:15:27.544Z,63.83
2022-10-22T13:18:21.483Z,62.74
2022-10-22T13:21:03.141Z,61.60
2022-10-22T13:23:35.173Z,60.93
2022-10-22T13:26:20.672Z,60.69
2022-10-22T13:28:54.753Z,60.24
2022-10-22T13:31:29.521Z,59.33
2022-10-22T13:34:11.679Z,60.25
2022-10-22T13:36:45.323Z,60.07
2022-10-22T13:39:19.037Z,60.43
2022-10-22T13:41:51.988Z,60.79
2022-10-22T13:44:23.727Z,60.51
2022-10-22T13:46:56.301Z,60.12
2022-10-22T13:49:28.039Z,60.01
2022-10-22T13:52:01.146Z,60.32
2022-10-22T13:54:37.870Z,59.43
2022-10-22T13:57:10.695Z,58.82
2022-10-22T13:59:42.483Z,58.71
2022-10-22T14:02:14.463Z,58.47
2022-10-22T14:04:50.819Z,58.66
2022-10-22T14:07:22.509Z,58.76
2022-10-22T14:09:54.167Z,58.59
2022-10-22T14:12:25.858Z,58.85
2022-10-22T14:17:34.110Z,58.65
2022-10-22T14:20:06.360Z,58.74
2022-10-22T14:22:46.557Z,58.25
2022-10-22T14:25:24.794Z,58.17
2022-10-22T14:27:57.070Z,58.55
2022-10-22T14:30:30.352Z,58.51
2022-10-22T14:33:32.135Z,58.79
2022-10-22T14:36:10.255Z,59.03
2022-10-22T14:38:48.614Z,59.31
2022-10-22T14:41:25.595Z,59.68
2022-10-22T14:44:01.010Z,59.85
2022-10-22T14:46:36.108Z,59.58
2022-10-22T14:49:10.256Z,59.73
2022-10-22T14:51:48.141Z,59.65
2022-10-22T14:54:20.063Z,59.58
2022-10-22T14:56:56.505Z,59.86
2022-10-22T14:59:29.330Z,59.77
2022-10-22T15:02:01.241Z,59.98
2022-10-22T15:04:33.088Z,60.16
2022-10-22T15:07:05.474Z,60.42
2022-10-22T15:09:40.250Z,60.48
2022-10-22T15:12:11.988Z,60.79
2022-10-22T15:14:46.540Z,60.91
2022-10-22T15:17:18.471Z,61.53
2022-10-22T15:19:50.233Z,61.65
2022-10-22T15:22:24.489Z,62.05
2022-10-22T15:25:00.641Z,62.68
2022-10-22T15:27:32.456Z,63.07
2022-10-22T15:30:07.890Z,63.64
2022-10-22T15:32:40.618Z,64.14
2022-10-22T15:35:14.955Z,64.39
2022-10-22T15:37:46.769Z,64.93
2022-10-22T15:40:18.423Z,65.11
2022-10-22T15:42:50.099Z,65.11
2022-10-22T15:45:22.528Z,65.59
2022-10-22T15:47:54.324Z,65.59
2022-10-22T15:50:28.567Z,65.75
2022-10-22T15:53:00.259Z,65.96
2022-10-22T15:55:32.055Z,66.14
2022-10-22T15:58:04.348Z,66.47
2022-10-22T16:00:36.350Z,66.89
2022-10-22T16:03:10.949Z,67.54
2022-10-22T16:05:57.532Z,67.94
2022-10-22T16:08:30.279Z,68.41
2022-10-22T16:11:02.132Z,68.81
2022-10-22T16:13:36.291Z,69.25
2022-10-22T16:16:08.666Z,69.86
2022-10-22T16:18:40.817Z,70.18
2022-10-22T16:21:14.561Z,70.40
2022-10-22T16:23:47.293Z,70.66
2022-10-22T16:26:20.150Z,70.70
2022-10-22T16:28:52.011Z,71.09
2022-10-22T16:31:24.159Z,71.47
2022-10-22T16:33:56.271Z,71.32
2022-10-22T16:36:32.173Z,71.72
2022-10-22T16:39:04.884Z,72.04
2022-10-22T16:41:37.518Z,72.23
2022-10-22T16:44:12.324Z,72.59
2022-10-22T16:46:44.075Z,72.83
2022-10-22T16:49:16.057Z,73.09
2022-10-22T16:51:47.818Z,73.44
2022-10-22T16:54:21.794Z,73.52
2022-10-22T16:56:53.517Z,73.63
2022-10-22T16:59:25.371Z,74.03
2022-10-22T17:01:57.457Z,74.04
2022-10-22T17:04:29.337Z,74.24
2022-10-22T17:07:01.164Z,74.40
2022-10-22T17:09:32.817Z,74.54
2022-10-22T17:12:04.643Z,74.93
2022-10-22T17:14:45.479Z,75.13
2022-10-22T17:17:20.232Z,75.09
2022-10-22T17:19:52.605Z,75.54
2022-10-22T17:22:27.497Z,75.50
2022-10-22T17:25:11.730Z,75.45
2022-10-22T17:27:44.492Z,75.43
2022-10-22T17:30:23.258Z,75.35
2022-10-22T17:33:01.240Z,75.25
2022-10-22T17:35:39.670Z,74.70
2022-10-22T17:38:13.258Z,75.00
2022-10-22T17:40:47.535Z,74.68
2022-10-22T17:43:24.365Z,74.88
2022-10-22T17:46:08.148Z,75.10
2022-10-22T17:48:40.241Z,75.47
2022-10-22T17:51:13.762Z,75.49
2022-10-22T17:53:46.330Z,76.20
2022-10-22T17:56:23.941Z,76.21
2022-10-22T17:58:55.973Z,76.64
2022-10-22T18:01:30.958Z,76.53
2022-10-22T18:04:06.185Z,77.24
2022-10-22T18:06:41.136Z,77.34
2022-10-22T18:09:18.745Z,77.40
2022-10-22T18:11:53.233Z,77.32
2022-10-22T18:14:25.097Z,77.75
2022-10-22T18:16:58.930Z,78.04
2022-10-22T18:19:31.099Z,78.29
2022-10-22T18:22:02.891Z,78.14
2022-10-22T18:24:41.570Z,78.53
2022-10-22T18:27:13.235Z,77.92
2022-10-22T18:29:51.399Z,78.36
2022-10-22T18:32:23.116Z,78.01
2022-10-22T18:34:54.770Z,78.39
2022-10-22T18:37:26.504Z,78.32
2022-10-22T18:39:58.951Z,78.08
2022-10-22T18:42:32.962Z,78.03
2022-10-22T18:45:09.143Z,77.99
2022-10-22T18:47:41.756Z,78.01
2022-10-22T18:50:14.699Z,78.13
2022-10-22T18:52:47.911Z,78.61
2022-10-22T18:55:19.548Z,78.67
2022-10-22T18:57:51.412Z,78.46
2022-10-22T19:00:23.128Z,78.37
2022-10-22T19:02:55.055Z,78.41
2022-10-22T19:05:26.703Z,78.58
2022-10-22T19:07:59.405Z,78.83
2022-10-22T19:10:31.102Z,78.65
2022-10-22T19:13:02.861Z,78.94
2022-10-22T19:15:34.563Z,79.18
2022-10-22T19:18:06.212Z,78.97
2022-10-22T19:20:38.941Z,79.52
2022-10-22T19:23:10.575Z,79.44
2022-10-22T19:25:43.861Z,79.44
2022-10-22T19:28:15.500Z,79.95
2022-10-22T19:30:47.141Z,79.88
2022-10-22T19:33:19.152Z,79.96
2022-10-22T19:35:51.490Z,80.13
2022-10-22T19:38:27.729Z,80.07
2022-10-22T19:40:59.506Z,80.29
2022-10-22T19:43:31.240Z,80.03
2022-10-22T19:46:05.049Z,80.24
2022-10-22T19:48:38.026Z,80.24
2022-10-22T19:51:16.395Z,81.21
2022-10-22T19:53:56.358Z,81.30
2022-10-22T19:56:29.247Z,81.74
2022-10-22T19:59:06.570Z,81.81
2022-10-22T20:01:38.707Z,81.57
2022-10-22T20:04:15.120Z,81.75
2022-10-22T20:06:46.988Z,81.91
2022-10-22T20:09:21.623Z,81.14
2022-10-22T20:11:53.231Z,81.45
2022-10-22T20:14:24.980Z,81.32
2022-10-22T20:16:56.648Z,81.71
2022-10-22T20:19:29.350Z,82.20
2022-10-22T20:22:01.558Z,82.11
2022-10-22T20:24:33.827Z,82.19
2022-10-22T20:27:05.895Z,81.92
2022-10-22T20:29:40.366Z,81.93
2022-10-22T20:32:14.532Z,81.77
2022-10-22T20:34:46.296Z,81.86
2022-10-22T20:37:20.521Z,81.90
2022-10-22T20:39:52.225Z,81.88
2022-10-22T20:42:24.619Z,81.98
2022-10-22T20:44:56.697Z,82.21
2022-10-22T20:47:39.211Z,81.97
2022-10-22T20:50:21.536Z,82.21
2022-10-22T20:52:53.997Z,82.17
2022-10-22T20:55:26.489Z,82.51
2022-10-22T20:58:01.135Z,82.82
2022-10-22T21:00:35.932Z,83.08
2022-10-22T21:03:07.606Z,82.65
2022-10-22T21:05:39.385Z,83.07
2022-10-22T21:08:17.263Z,83.29
2022-10-22T21:10:50.474Z,83.53
2022-10-22T21:13:22.201Z,83.39
2022-10-22T21:15:56.608Z,83.17
2022-10-22T21:18:28.292Z,82.99
2022-10-22T21:21:00.357Z,82.63
2022-10-22T21:23:35.747Z,82.83
2022-10-22T21:26:07.442Z,82.83
2022-10-22T21:28:39.824Z,82.59
2022-10-22T21:31:18.786Z,82.70
2022-10-22T21:33:50.711Z,82.60
2022-10-22T21:36:23.472Z,82.98
2022-10-22T21:38:56.363Z,82.94
2022-10-22T21:41:31.488Z,83.68
2022-10-22T21:44:03.460Z,83.66
2022-10-22T21:46:35.458Z,83.39
2022-10-22T21:49:08.500Z,83.59
2022-10-22T21:51:40.478Z,83.74
2022-10-22T21:54:15.413Z,83.53
2022-10-22T21:56:47.791Z,83.46
2022-10-22T21:59:19.719Z,83.01
2022-10-22T22:01:51.426Z,83.19
2022-10-22T22:04:23.088Z,82.75
2022-10-22T22:06:57.595Z,82.87
2022-10-22T22:09:29.235Z,82.74
2022-10-22T22:12:01.211Z,82.66
2022-10-22T22:14:32.902Z,82.74
2022-10-22T22:17:07.801Z,82.30
2022-10-22T22:19:39.477Z,82.11
2022-10-22T22:22:11.316Z,82.30
2022-10-22T22:24:43.761Z,82.43
2022-10-22T22:27:17.416Z,82.38
2022-10-22T22:29:49.257Z,82.25
2022-10-22T22:32:21.007Z,82.44
2022-10-22T22:34:52.718Z,82.39
2022-10-22T22:37:24.518Z,82.57
2022-10-22T22:40:02.546Z,82.66
2022-10-22T22:42:34.525Z,83.03
2022-10-22T22:45:06.555Z,83.59
2022-10-22T22:47:38.874Z,83.67
2022-10-22T22:50:10.929Z,84.24
2022-10-22T22:52:42.756Z,83.98
2022-10-22T22:55:17.986Z,84.01
2022-10-22T22:57:50.417Z,84.15
2022-10-22T23:00:22.648Z,83.92
2022-10-22T23:02:56.158Z,84.54
2022-10-22T23:05:30.972Z,84.71
2022-10-22T23:08:03.179Z,84.70
2022-10-22T23:10:37.870Z,84.46
2022-10-22T23:13:09.776Z,84.67
2022-10-22T23:15:41.454Z,85.02
2022-10-22T23:18:13.638Z,84.73
2022-10-22T23:20:45.347Z,84.74
2022-10-22T23:23:17.060Z,84.48
2022-10-22T23:25:48.912Z,84.76
2022-10-22T23:28:24.170Z,84.76
2022-10-22T23:30:57.524Z,84.77
2022-10-22T23:33:29.168Z,84.43
2022-10-22T23:36:02.286Z,84.49
2022-10-22T23:38:37.823Z,84.17
2022-10-22T23:41:12.337Z,83.72
2022-10-22T23:43:44.582Z,83.71
2022-10-22T23:46:19.251Z,83.60
2022-10-22T23:48:50.841Z,83.95
2022-10-22T23:51:23.064Z,83.36
2022-10-22T23:53:56.987Z,83.53
2022-10-22T23:56:30.423Z,83.50
2022-10-22T23:59:03.924Z,83.18
